sensor_id;sensor_type;location;lat;lon;timestamp;P1;durP1;ratioP1;P2;durP2;ratioP2
32216;SDS011;67098;51.140;4.088;2023-06-04T00:00:46;4.07;;;1.95;;
32216;SDS011;67098;51.140;4.088;2023-06-04T00:03:12;4.82;;;2.00;;
32216;SDS011;67098;51.140;4.088;2023-06-04T00:05:37;7.70;;;2.10;;
32216;SDS011;67098;51.140;4.088;2023-06-04T00:08:03;8.15;;;2.38;;
32216;SDS011;67098;51.140;4.088;2023-06-04T00:10:29;5.28;;;2.22;;
32216;SDS011;67098;51.140;4.088;2023-06-04T00:12:56;11.88;;;2.63;;
32216;SDS011;67098;51.140;4.088;2023-06-04T00:15:22;3.20;;;1.95;;
32216;SDS011;67098;51.140;4.088;2023-06-04T00:17:48;5.13;;;2.38;;
32216;SDS011;67098;51.140;4.088;2023-06-04T00:20:13;8.75;;;3.00;;
32216;SDS011;67098;51.140;4.088;2023-06-04T00:22:39;5.60;;;2.30;;
32216;SDS011;67098;51.140;4.088;2023-06-04T00:25:07;9.15;;;2.13;;
32216;SDS011;67098;51.140;4.088;2023-06-04T00:27:33;10.88;;;2.38;;
32216;SDS011;67098;51.140;4.088;2023-06-04T00:29:59;15.65;;;2.58;;
32216;SDS011;67098;51.140;4.088;2023-06-04T00:32:25;7.47;;;2.55;;
32216;SDS011;67098;51.140;4.088;2023-06-04T00:34:51;11.40;;;2.47;;
32216;SDS011;67098;51.140;4.088;2023-06-04T00:37:18;4.78;;;2.30;;
32216;SDS011;67098;51.140;4.088;2023-06-04T00:39:43;4.85;;;2.72;;
32216;SDS011;67098;51.140;4.088;2023-06-04T00:42:09;7.60;;;2.50;;
32216;SDS011;67098;51.140;4.088;2023-06-04T00:44:35;4.88;;;2.50;;
32216;SDS011;67098;51.140;4.088;2023-06-04T00:47:01;5.05;;;2.10;;
32216;SDS011;67098;51.140;4.088;2023-06-04T00:49:27;4.45;;;1.83;;
32216;SDS011;67098;51.140;4.088;2023-06-04T00:51:53;4.15;;;2.30;;
32216;SDS011;67098;51.140;4.088;2023-06-04T00:54:20;5.60;;;2.30;;
32216;SDS011;67098;51.140;4.088;2023-06-04T00:56:47;7.07;;;2.58;;
32216;SDS011;67098;51.140;4.088;2023-06-04T00:59:13;4.30;;;2.03;;
32216;SDS011;67098;51.140;4.088;2023-06-04T01:04:18;4.20;;;1.98;;
32216;SDS011;67098;51.140;4.088;2023-06-04T01:07:03;6.55;;;2.70;;
32216;SDS011;67098;51.140;4.088;2023-06-04T01:09:32;5.80;;;2.10;;
32216;SDS011;67098;51.140;4.088;2023-06-04T01:11:58;4.93;;;2.65;;
32216;SDS011;67098;51.140;4.088;2023-06-04T01:14:26;4.15;;;2.15;;
32216;SDS011;67098;51.140;4.088;2023-06-04T01:17:12;6.40;;;2.20;;
32216;SDS011;67098;51.140;4.088;2023-06-04T01:25:27;3.85;;;2.15;;
32216;SDS011;67098;51.140;4.088;2023-06-04T01:27:59;6.75;;;2.10;;
32216;SDS011;67098;51.140;4.088;2023-06-04T01:30:29;10.32;;;2.60;;
32216;SDS011;67098;51.140;4.088;2023-06-04T01:33:00;3.83;;;2.30;;
32216;SDS011;67098;51.140;4.088;2023-06-04T01:35:28;6.03;;;2.30;;
32216;SDS011;67098;51.140;4.088;2023-06-04T01:37:56;9.50;;;2.05;;
32216;SDS011;67098;51.140;4.088;2023-06-04T01:40:23;6.05;;;2.25;;
32216;SDS011;67098;51.140;4.088;2023-06-04T01:42:50;4.22;;;2.28;;
32216;SDS011;67098;51.140;4.088;2023-06-04T01:45:16;5.75;;;2.80;;
32216;SDS011;67098;51.140;4.088;2023-06-04T01:47:41;4.60;;;2.35;;
32216;SDS011;67098;51.140;4.088;2023-06-04T01:50:07;7.82;;;2.67;;
32216;SDS011;67098;51.140;4.088;2023-06-04T01:52:37;4.22;;;2.25;;
32216;SDS011;67098;51.140;4.088;2023-06-04T01:55:04;6.07;;;2.67;;
32216;SDS011;67098;51.140;4.088;2023-06-04T01:57:32;9.63;;;2.83;;
32216;SDS011;67098;51.140;4.088;2023-06-04T01:59:59;8.18;;;2.85;;
32216;SDS011;67098;51.140;4.088;2023-06-04T02:02:26;4.32;;;2.30;;
32216;SDS011;67098;51.140;4.088;2023-06-04T02:04:52;5.70;;;2.50;;
32216;SDS011;67098;51.140;4.088;2023-06-04T02:07:21;5.72;;;2.40;;
32216;SDS011;67098;51.140;4.088;2023-06-04T02:09:47;14.07;;;3.95;;
32216;SDS011;67098;51.140;4.088;2023-06-04T02:12:13;6.88;;;2.60;;
32216;SDS011;67098;51.140;4.088;2023-06-04T02:14:39;5.65;;;2.38;;
32216;SDS011;67098;51.140;4.088;2023-06-04T02:17:06;5.57;;;1.98;;
32216;SDS011;67098;51.140;4.088;2023-06-04T02:19:40;8.98;;;2.50;;
32216;SDS011;67098;51.140;4.088;2023-06-04T02:22:11;5.00;;;2.25;;
32216;SDS011;67098;51.140;4.088;2023-06-04T02:24:38;6.15;;;2.20;;
32216;SDS011;67098;51.140;4.088;2023-06-04T02:27:07;7.15;;;2.38;;
32216;SDS011;67098;51.140;4.088;2023-06-04T02:29:33;6.03;;;2.33;;
32216;SDS011;67098;51.140;4.088;2023-06-04T02:31:59;4.65;;;2.60;;
32216;SDS011;67098;51.140;4.088;2023-06-04T02:34:25;7.35;;;2.70;;
32216;SDS011;67098;51.140;4.088;2023-06-04T02:36:51;4.72;;;2.45;;
32216;SDS011;67098;51.140;4.088;2023-06-04T02:39:18;7.20;;;2.67;;
32216;SDS011;67098;51.140;4.088;2023-06-04T02:41:44;4.15;;;2.08;;
32216;SDS011;67098;51.140;4.088;2023-06-04T02:44:10;6.28;;;2.65;;
32216;SDS011;67098;51.140;4.088;2023-06-04T02:46:36;4.45;;;2.10;;
32216;SDS011;67098;51.140;4.088;2023-06-04T02:49:02;5.43;;;2.22;;
32216;SDS011;67098;51.140;4.088;2023-06-04T02:51:28;6.20;;;2.72;;
32216;SDS011;67098;51.140;4.088;2023-06-04T02:53:54;6.32;;;2.45;;
32216;SDS011;67098;51.140;4.088;2023-06-04T02:56:20;7.95;;;2.80;;
32216;SDS011;67098;51.140;4.088;2023-06-04T02:58:52;6.32;;;2.42;;
32216;SDS011;67098;51.140;4.088;2023-06-04T03:01:21;5.55;;;2.42;;
32216;SDS011;67098;51.140;4.088;2023-06-04T03:03:51;6.82;;;2.47;;
32216;SDS011;67098;51.140;4.088;2023-06-04T03:06:18;8.63;;;2.78;;
32216;SDS011;67098;51.140;4.088;2023-06-04T03:08:46;10.90;;;2.70;;
32216;SDS011;67098;51.140;4.088;2023-06-04T03:11:12;8.20;;;2.60;;
32216;SDS011;67098;51.140;4.088;2023-06-04T03:13:38;7.43;;;2.60;;
32216;SDS011;67098;51.140;4.088;2023-06-04T03:16:04;6.68;;;2.83;;
32216;SDS011;67098;51.140;4.088;2023-06-04T03:18:37;6.57;;;2.63;;
32216;SDS011;67098;51.140;4.088;2023-06-04T03:21:04;10.05;;;2.67;;
32216;SDS011;67098;51.140;4.088;2023-06-04T03:23:31;4.70;;;2.40;;
32216;SDS011;67098;51.140;4.088;2023-06-04T03:25:57;5.28;;;2.50;;
32216;SDS011;67098;51.140;4.088;2023-06-04T03:28:23;8.65;;;2.45;;
32216;SDS011;67098;51.140;4.088;2023-06-04T03:30:49;5.85;;;2.53;;
32216;SDS011;67098;51.140;4.088;2023-06-04T03:33:15;5.88;;;2.80;;
32216;SDS011;67098;51.140;4.088;2023-06-04T03:35:41;7.63;;;2.95;;
32216;SDS011;67098;51.140;4.088;2023-06-04T03:38:06;5.85;;;2.67;;
32216;SDS011;67098;51.140;4.088;2023-06-04T03:40:32;8.50;;;2.63;;
32216;SDS011;67098;51.140;4.088;2023-06-04T03:42:58;6.85;;;2.60;;
32216;SDS011;67098;51.140;4.088;2023-06-04T03:45:25;7.32;;;2.17;;
32216;SDS011;67098;51.140;4.088;2023-06-04T03:47:51;5.53;;;2.28;;
32216;SDS011;67098;51.140;4.088;2023-06-04T03:50:17;7.70;;;2.90;;
32216;SDS011;67098;51.140;4.088;2023-06-04T03:52:43;9.18;;;2.95;;
32216;SDS011;67098;51.140;4.088;2023-06-04T03:55:09;5.63;;;2.47;;
32216;SDS011;67098;51.140;4.088;2023-06-04T03:57:36;8.20;;;2.65;;
32216;SDS011;67098;51.140;4.088;2023-06-04T04:00:07;9.30;;;2.72;;
32216;SDS011;67098;51.140;4.088;2023-06-04T04:02:37;5.28;;;2.45;;
32216;SDS011;67098;51.140;4.088;2023-06-04T04:05:04;4.78;;;2.35;;
32216;SDS011;67098;51.140;4.088;2023-06-04T04:07:30;6.47;;;2.55;;
32216;SDS011;67098;51.140;4.088;2023-06-04T04:09:56;4.05;;;2.38;;
32216;SDS011;67098;51.140;4.088;2023-06-04T04:12:21;10.52;;;2.63;;
32216;SDS011;67098;51.140;4.088;2023-06-04T04:14:47;6.13;;;2.58;;
32216;SDS011;67098;51.140;4.088;2023-06-04T04:17:13;6.80;;;2.70;;
32216;SDS011;67098;51.140;4.088;2023-06-04T04:19:39;7.15;;;2.88;;
32216;SDS011;67098;51.140;4.088;2023-06-04T04:22:05;6.03;;;2.30;;
32216;SDS011;67098;51.140;4.088;2023-06-04T04:24:31;6.95;;;2.90;;
32216;SDS011;67098;51.140;4.088;2023-06-04T04:26:59;5.25;;;2.45;;
32216;SDS011;67098;51.140;4.088;2023-06-04T04:29:25;6.93;;;2.67;;
32216;SDS011;67098;51.140;4.088;2023-06-04T04:31:52;6.00;;;2.78;;
32216;SDS011;67098;51.140;4.088;2023-06-04T04:34:22;6.78;;;3.08;;
32216;SDS011;67098;51.140;4.088;2023-06-04T04:36:50;8.00;;;3.13;;
32216;SDS011;67098;51.140;4.088;2023-06-04T04:39:26;9.02;;;2.60;;
32216;SDS011;67098;51.140;4.088;2023-06-04T04:41:52;5.38;;;2.53;;
32216;SDS011;67098;51.140;4.088;2023-06-04T04:44:19;4.55;;;2.72;;
32216;SDS011;67098;51.140;4.088;2023-06-04T04:46:45;4.40;;;2.40;;
32216;SDS011;67098;51.140;4.088;2023-06-04T04:49:10;4.25;;;2.47;;
32216;SDS011;67098;51.140;4.088;2023-06-04T04:51:36;4.22;;;3.03;;
32216;SDS011;67098;51.140;4.088;2023-06-04T04:54:02;4.78;;;2.53;;
32216;SDS011;67098;51.140;4.088;2023-06-04T04:56:28;6.45;;;2.42;;
32216;SDS011;67098;51.140;4.088;2023-06-04T04:58:54;10.23;;;3.08;;
32216;SDS011;67098;51.140;4.088;2023-06-04T05:01:21;10.30;;;2.85;;
32216;SDS011;67098;51.140;4.088;2023-06-04T05:03:48;5.22;;;3.03;;
32216;SDS011;67098;51.140;4.088;2023-06-04T05:06:13;5.22;;;2.70;;
32216;SDS011;67098;51.140;4.088;2023-06-04T05:08:39;6.45;;;2.60;;
32216;SDS011;67098;51.140;4.088;2023-06-04T05:11:06;8.20;;;2.67;;
32216;SDS011;67098;51.140;4.088;2023-06-04T05:13:32;6.53;;;2.78;;
32216;SDS011;67098;51.140;4.088;2023-06-04T05:15:58;7.80;;;3.03;;
32216;SDS011;67098;51.140;4.088;2023-06-04T05:18:25;6.28;;;3.15;;
32216;SDS011;67098;51.140;4.088;2023-06-04T05:20:54;10.70;;;2.90;;
32216;SDS011;67098;51.140;4.088;2023-06-04T05:23:20;6.43;;;2.65;;
32216;SDS011;67098;51.140;4.088;2023-06-04T05:25:46;7.40;;;3.05;;
32216;SDS011;67098;51.140;4.088;2023-06-04T05:28:15;5.70;;;2.58;;
32216;SDS011;67098;51.140;4.088;2023-06-04T05:30:41;4.72;;;2.88;;
32216;SDS011;67098;51.140;4.088;2023-06-04T05:33:07;5.43;;;2.58;;
32216;SDS011;67098;51.140;4.088;2023-06-04T05:35:48;5.75;;;2.67;;
32216;SDS011;67098;51.140;4.088;2023-06-04T05:38:14;4.38;;;2.67;;
32216;SDS011;67098;51.140;4.088;2023-06-04T05:40:51;3.67;;;2.80;;
32216;SDS011;67098;51.140;4.088;2023-06-04T05:43:19;7.05;;;2.78;;
32216;SDS011;67098;51.140;4.088;2023-06-04T05:45:45;6.53;;;2.38;;
32216;SDS011;67098;51.140;4.088;2023-06-04T05:48:11;9.38;;;3.00;;
32216;SDS011;67098;51.140;4.088;2023-06-04T05:50:37;5.47;;;2.50;;
32216;SDS011;67098;51.140;4.088;2023-06-04T05:53:03;5.13;;;2.72;;
32216;SDS011;67098;51.140;4.088;2023-06-04T05:55:29;8.73;;;3.13;;
32216;SDS011;67098;51.140;4.088;2023-06-04T05:57:55;9.55;;;3.38;;
32216;SDS011;67098;51.140;4.088;2023-06-04T06:00:21;7.47;;;2.80;;
32216;SDS011;67098;51.140;4.088;2023-06-04T06:02:49;5.20;;;2.85;;
32216;SDS011;67098;51.140;4.088;2023-06-04T06:05:15;7.93;;;2.53;;
32216;SDS011;67098;51.140;4.088;2023-06-04T06:07:42;6.57;;;3.20;;
32216;SDS011;67098;51.140;4.088;2023-06-04T06:10:09;5.97;;;2.75;;
32216;SDS011;67098;51.140;4.088;2023-06-04T06:12:35;8.10;;;3.00;;
32216;SDS011;67098;51.140;4.088;2023-06-04T06:15:00;4.30;;;2.67;;
32216;SDS011;67098;51.140;4.088;2023-06-04T06:17:27;5.93;;;3.10;;
32216;SDS011;67098;51.140;4.088;2023-06-04T06:19:53;7.22;;;3.25;;
32216;SDS011;67098;51.140;4.088;2023-06-04T06:22:20;6.32;;;3.15;;
32216;SDS011;67098;51.140;4.088;2023-06-04T06:24:46;5.95;;;2.90;;
32216;SDS011;67098;51.140;4.088;2023-06-04T06:27:13;5.10;;;2.72;;
32216;SDS011;67098;51.140;4.088;2023-06-04T06:29:41;3.65;;;2.53;;
32216;SDS011;67098;51.140;4.088;2023-06-04T06:32:07;5.38;;;2.65;;
32216;SDS011;67098;51.140;4.088;2023-06-04T06:34:33;5.00;;;2.95;;
32216;SDS011;67098;51.140;4.088;2023-06-04T06:36:59;7.25;;;2.83;;
32216;SDS011;67098;51.140;4.088;2023-06-04T06:39:25;3.08;;;2.47;;
32216;SDS011;67098;51.140;4.088;2023-06-04T06:41:51;7.07;;;2.78;;
32216;SDS011;67098;51.140;4.088;2023-06-04T06:44:17;6.88;;;2.50;;
32216;SDS011;67098;51.140;4.088;2023-06-04T06:46:42;4.20;;;2.40;;
32216;SDS011;67098;51.140;4.088;2023-06-04T06:49:08;8.20;;;2.58;;
32216;SDS011;67098;51.140;4.088;2023-06-04T06:51:34;6.60;;;2.50;;
32216;SDS011;67098;51.140;4.088;2023-06-04T06:53:59;6.03;;;2.95;;
32216;SDS011;67098;51.140;4.088;2023-06-04T06:56:25;5.97;;;2.67;;
32216;SDS011;67098;51.140;4.088;2023-06-04T06:58:51;5.00;;;2.65;;
32216;SDS011;67098;51.140;4.088;2023-06-04T07:01:17;6.80;;;2.42;;
32216;SDS011;67098;51.140;4.088;2023-06-04T07:03:43;5.25;;;2.42;;
32216;SDS011;67098;51.140;4.088;2023-06-04T07:06:08;8.00;;;2.60;;
32216;SDS011;67098;51.140;4.088;2023-06-04T07:08:34;5.07;;;2.58;;
32216;SDS011;67098;51.140;4.088;2023-06-04T07:11:01;14.80;;;2.65;;
32216;SDS011;67098;51.140;4.088;2023-06-04T07:13:28;4.47;;;2.40;;
32216;SDS011;67098;51.140;4.088;2023-06-04T07:15:57;6.35;;;3.15;;
32216;SDS011;67098;51.140;4.088;2023-06-04T07:18:23;4.70;;;2.53;;
32216;SDS011;67098;51.140;4.088;2023-06-04T07:20:49;4.18;;;2.40;;
32216;SDS011;67098;51.140;4.088;2023-06-04T07:23:17;3.72;;;2.70;;
32216;SDS011;67098;51.140;4.088;2023-06-04T07:25:43;5.57;;;2.60;;
32216;SDS011;67098;51.140;4.088;2023-06-04T07:28:09;5.47;;;2.70;;
32216;SDS011;67098;51.140;4.088;2023-06-04T07:30:35;6.15;;;2.45;;
32216;SDS011;67098;51.140;4.088;2023-06-04T07:33:01;6.68;;;2.53;;
32216;SDS011;67098;51.140;4.088;2023-06-04T07:35:27;6.47;;;3.03;;
32216;SDS011;67098;51.140;4.088;2023-06-04T07:37:53;6.25;;;2.70;;
32216;SDS011;67098;51.140;4.088;2023-06-04T07:40:19;10.15;;;2.80;;
32216;SDS011;67098;51.140;4.088;2023-06-04T07:42:45;5.57;;;2.35;;
32216;SDS011;67098;51.140;4.088;2023-06-04T07:45:15;5.45;;;2.45;;
32216;SDS011;67098;51.140;4.088;2023-06-04T07:47:42;6.07;;;2.40;;
32216;SDS011;67098;51.140;4.088;2023-06-04T07:50:08;3.47;;;2.45;;
32216;SDS011;67098;51.140;4.088;2023-06-04T07:52:34;3.88;;;2.60;;
32216;SDS011;67098;51.140;4.088;2023-06-04T07:55:00;5.05;;;2.50;;
32216;SDS011;67098;51.140;4.088;2023-06-04T07:57:26;5.90;;;2.38;;
32216;SDS011;67098;51.140;4.088;2023-06-04T07:59:52;4.00;;;1.88;;
32216;SDS011;67098;51.140;4.088;2023-06-04T08:02:18;5.25;;;2.08;;
32216;SDS011;67098;51.140;4.088;2023-06-04T08:04:44;6.80;;;2.58;;
32216;SDS011;67098;51.140;4.088;2023-06-04T08:07:11;4.35;;;2.10;;
32216;SDS011;67098;51.140;4.088;2023-06-04T08:09:38;4.72;;;2.20;;
32216;SDS011;67098;51.140;4.088;2023-06-04T08:12:03;4.22;;;2.13;;
32216;SDS011;67098;51.140;4.088;2023-06-04T08:14:29;2.47;;;1.60;;
32216;SDS011;67098;51.140;4.088;2023-06-04T08:16:57;4.65;;;2.05;;
32216;SDS011;67098;51.140;4.088;2023-06-04T08:19:23;4.00;;;2.10;;
32216;SDS011;67098;51.140;4.088;2023-06-04T08:21:49;6.28;;;1.60;;
32216;SDS011;67098;51.140;4.088;2023-06-04T08:24:15;5.57;;;1.77;;
32216;SDS011;67098;51.140;4.088;2023-06-04T08:26:41;4.57;;;2.10;;
32216;SDS011;67098;51.140;4.088;2023-06-04T08:29:07;8.93;;;2.92;;
32216;SDS011;67098;51.140;4.088;2023-06-04T08:31:33;4.20;;;1.75;;
32216;SDS011;67098;51.140;4.088;2023-06-04T08:33:59;3.63;;;1.90;;
32216;SDS011;67098;51.140;4.088;2023-06-04T08:36:25;4.70;;;1.80;;
32216;SDS011;67098;51.140;4.088;2023-06-04T08:38:51;1.95;;;1.35;;
32216;SDS011;67098;51.140;4.088;2023-06-04T08:43:56;2.47;;;1.20;;
32216;SDS011;67098;51.140;4.088;2023-06-04T08:46:23;2.47;;;1.60;;
32216;SDS011;67098;51.140;4.088;2023-06-04T08:48:50;4.60;;;1.35;;
32216;SDS011;67098;51.140;4.088;2023-06-04T08:51:16;1.65;;;1.50;;
32216;SDS011;67098;51.140;4.088;2023-06-04T08:53:42;2.50;;;1.20;;
32216;SDS011;67098;51.140;4.088;2023-06-04T08:56:12;2.07;;;1.20;;
32216;SDS011;67098;51.140;4.088;2023-06-04T08:58:38;2.50;;;1.83;;
32216;SDS011;67098;51.140;4.088;2023-06-04T09:01:06;3.35;;;1.33;;
32216;SDS011;67098;51.140;4.088;2023-06-04T09:03:33;3.80;;;1.10;;
32216;SDS011;67098;51.140;4.088;2023-06-04T09:06:02;2.97;;;1.67;;
32216;SDS011;67098;51.140;4.088;2023-06-04T09:08:33;2.45;;;1.42;;
32216;SDS011;67098;51.140;4.088;2023-06-04T09:11:04;3.88;;;1.48;;
32216;SDS011;67098;51.140;4.088;2023-06-04T09:13:33;2.72;;;1.60;;
32216;SDS011;67098;51.140;4.088;2023-06-04T09:16:03;1.80;;;1.30;;
32216;SDS011;67098;51.140;4.088;2023-06-04T09:18:31;4.15;;;1.73;;
32216;SDS011;67098;51.140;4.088;2023-06-04T09:21:04;3.25;;;1.60;;
32216;SDS011;67098;51.140;4.088;2023-06-04T09:23:34;5.65;;;1.55;;
32216;SDS011;67098;51.140;4.088;2023-06-04T09:26:09;4.47;;;1.83;;
32216;SDS011;67098;51.140;4.088;2023-06-04T09:28:35;4.45;;;1.70;;
32216;SDS011;67098;51.140;4.088;2023-06-04T09:31:07;5.00;;;1.63;;
32216;SDS011;67098;51.140;4.088;2023-06-04T09:33:45;3.65;;;1.33;;
32216;SDS011;67098;51.140;4.088;2023-06-04T09:36:13;5.68;;;1.55;;
32216;SDS011;67098;51.140;4.088;2023-06-04T09:38:40;3.95;;;1.55;;
32216;SDS011;67098;51.140;4.088;2023-06-04T09:41:15;3.58;;;1.30;;
32216;SDS011;67098;51.140;4.088;2023-06-04T09:43:42;4.35;;;1.35;;
32216;SDS011;67098;51.140;4.088;2023-06-04T09:46:12;3.10;;;1.30;;
32216;SDS011;67098;51.140;4.088;2023-06-04T09:48:40;2.53;;;1.27;;
32216;SDS011;67098;51.140;4.088;2023-06-04T09:51:10;2.45;;;1.15;;
32216;SDS011;67098;51.140;4.088;2023-06-04T09:53:38;4.60;;;1.10;;
32216;SDS011;67098;51.140;4.088;2023-06-04T09:56:04;1.50;;;1.20;;
32216;SDS011;67098;51.140;4.088;2023-06-04T09:58:36;1.95;;;1.00;;
32216;SDS011;67098;51.140;4.088;2023-06-04T10:01:03;3.30;;;1.10;;
32216;SDS011;67098;51.140;4.088;2023-06-04T10:03:31;4.82;;;1.50;;
32216;SDS011;67098;51.140;4.088;2023-06-04T10:05:58;4.32;;;1.40;;
32216;SDS011;67098;51.140;4.088;2023-06-04T10:08:26;2.50;;;1.40;;
32216;SDS011;67098;51.140;4.088;2023-06-04T10:10:56;3.20;;;1.25;;
32216;SDS011;67098;51.140;4.088;2023-06-04T10:13:27;4.63;;;1.20;;
32216;SDS011;67098;51.140;4.088;2023-06-04T10:16:13;3.53;;;1.27;;
32216;SDS011;67098;51.140;4.088;2023-06-04T10:18:40;1.98;;;0.90;;
32216;SDS011;67098;51.140;4.088;2023-06-04T10:21:06;1.95;;;1.52;;
32216;SDS011;67098;51.140;4.088;2023-06-04T10:23:34;1.05;;;0.93;;
32216;SDS011;67098;51.140;4.088;2023-06-04T10:26:01;2.20;;;1.25;;
32216;SDS011;67098;51.140;4.088;2023-06-04T10:28:27;2.20;;;1.27;;
32216;SDS011;67098;51.140;4.088;2023-06-04T10:30:54;4.03;;;1.30;;
32216;SDS011;67098;51.140;4.088;2023-06-04T10:33:21;1.75;;;1.30;;
32216;SDS011;67098;51.140;4.088;2023-06-04T10:35:49;1.70;;;1.10;;
32216;SDS011;67098;51.140;4.088;2023-06-04T10:38:18;5.83;;;1.93;;
32216;SDS011;67098;51.140;4.088;2023-06-04T10:40:46;3.47;;;1.25;;
32216;SDS011;67098;51.140;4.088;2023-06-04T10:43:13;1.63;;;1.25;;
32216;SDS011;67098;51.140;4.088;2023-06-04T10:45:43;1.27;;;1.00;;
32216;SDS011;67098;51.140;4.088;2023-06-04T10:48:09;5.20;;;1.05;;
32216;SDS011;67098;51.140;4.088;2023-06-04T10:50:50;4.45;;;1.70;;
32216;SDS011;67098;51.140;4.088;2023-06-04T10:53:17;3.60;;;1.27;;
32216;SDS011;67098;51.140;4.088;2023-06-04T10:55:44;1.95;;;1.10;;
32216;SDS011;67098;51.140;4.088;2023-06-04T10:58:12;2.53;;;0.90;;
32216;SDS011;67098;51.140;4.088;2023-06-04T11:00:44;3.55;;;1.00;;
32216;SDS011;67098;51.140;4.088;2023-06-04T11:03:12;3.45;;;1.20;;
32216;SDS011;67098;51.140;4.088;2023-06-04T11:05:43;2.75;;;1.33;;
32216;SDS011;67098;51.140;4.088;2023-06-04T11:08:13;3.47;;;1.30;;
32216;SDS011;67098;51.140;4.088;2023-06-04T11:10:43;2.53;;;1.30;;
32216;SDS011;67098;51.140;4.088;2023-06-04T11:13:10;2.53;;;1.20;;
32216;SDS011;67098;51.140;4.088;2023-06-04T11:15:45;1.88;;;1.13;;
32216;SDS011;67098;51.140;4.088;2023-06-04T11:18:13;3.58;;;1.27;;
32216;SDS011;67098;51.140;4.088;2023-06-04T11:20:44;1.50;;;1.10;;
32216;SDS011;67098;51.140;4.088;2023-06-04T11:23:13;1.60;;;1.10;;
32216;SDS011;67098;51.140;4.088;2023-06-04T11:25:40;1.95;;;1.10;;
32216;SDS011;67098;51.140;4.088;2023-06-04T11:28:17;4.07;;;1.20;;
32216;SDS011;67098;51.140;4.088;2023-06-04T11:30:43;2.15;;;1.08;;
32216;SDS011;67098;51.140;4.088;2023-06-04T11:33:09;5.05;;;1.40;;
32216;SDS011;67098;51.140;4.088;2023-06-04T11:35:41;3.65;;;1.20;;
32216;SDS011;67098;51.140;4.088;2023-06-04T11:38:08;4.35;;;1.08;;
32216;SDS011;67098;51.140;4.088;2023-06-04T11:40:34;3.17;;;1.40;;
32216;SDS011;67098;51.140;4.088;2023-06-04T11:43:01;2.25;;;1.10;;
32216;SDS011;67098;51.140;4.088;2023-06-04T11:45:27;2.17;;;1.13;;
32216;SDS011;67098;51.140;4.088;2023-06-04T11:47:55;1.40;;;1.00;;
32216;SDS011;67098;51.140;4.088;2023-06-04T11:50:22;1.65;;;1.13;;
32216;SDS011;67098;51.140;4.088;2023-06-04T11:52:52;6.93;;;1.33;;
32216;SDS011;67098;51.140;4.088;2023-06-04T11:55:18;4.13;;;1.50;;
32216;SDS011;67098;51.140;4.088;2023-06-04T11:57:47;3.13;;;1.30;;
32216;SDS011;67098;51.140;4.088;2023-06-04T12:00:17;2.67;;;1.17;;
32216;SDS011;67098;51.140;4.088;2023-06-04T12:02:56;2.67;;;1.30;;
32216;SDS011;67098;51.140;4.088;2023-06-04T12:05:23;1.40;;;1.00;;
32216;SDS011;67098;51.140;4.088;2023-06-04T12:08:03;1.85;;;1.15;;
32216;SDS011;67098;51.140;4.088;2023-06-04T12:10:42;4.90;;;1.15;;
32216;SDS011;67098;51.140;4.088;2023-06-04T12:13:09;1.67;;;1.00;;
32216;SDS011;67098;51.140;4.088;2023-06-04T12:15:35;4.32;;;1.50;;
32216;SDS011;67098;51.140;4.088;2023-06-04T12:18:02;2.88;;;1.30;;
32216;SDS011;67098;51.140;4.088;2023-06-04T12:20:34;1.90;;;1.17;;
32216;SDS011;67098;51.140;4.088;2023-06-04T12:23:02;1.33;;;1.15;;
32216;SDS011;67098;51.140;4.088;2023-06-04T12:25:29;1.60;;;1.10;;
32216;SDS011;67098;51.140;4.088;2023-06-04T12:27:56;5.32;;;1.50;;
32216;SDS011;67098;51.140;4.088;2023-06-04T12:30:22;1.70;;;1.13;;
32216;SDS011;67098;51.140;4.088;2023-06-04T12:32:48;2.95;;;1.40;;
32216;SDS011;67098;51.140;4.088;2023-06-04T12:35:14;2.63;;;1.48;;
32216;SDS011;67098;51.140;4.088;2023-06-04T12:37:41;2.50;;;1.48;;
32216;SDS011;67098;51.140;4.088;2023-06-04T12:40:07;2.42;;;1.25;;
32216;SDS011;67098;51.140;4.088;2023-06-04T12:42:34;3.95;;;1.30;;
32216;SDS011;67098;51.140;4.088;2023-06-04T12:44:59;4.25;;;1.42;;
32216;SDS011;67098;51.140;4.088;2023-06-04T12:47:25;1.45;;;1.20;;
32216;SDS011;67098;51.140;4.088;2023-06-04T12:49:51;3.00;;;1.35;;
32216;SDS011;67098;51.140;4.088;2023-06-04T12:52:17;7.70;;;1.48;;
32216;SDS011;67098;51.140;4.088;2023-06-04T12:54:43;3.35;;;1.50;;
32216;SDS011;67098;51.140;4.088;2023-06-04T12:57:09;2.10;;;1.30;;
32216;SDS011;67098;51.140;4.088;2023-06-04T12:59:35;2.28;;;1.02;;
32216;SDS011;67098;51.140;4.088;2023-06-04T13:02:01;4.50;;;1.42;;
32216;SDS011;67098;51.140;4.088;2023-06-04T13:04:26;3.90;;;1.33;;
32216;SDS011;67098;51.140;4.088;2023-06-04T13:06:52;3.38;;;1.67;;
32216;SDS011;67098;51.140;4.088;2023-06-04T13:09:23;5.13;;;1.52;;
32216;SDS011;67098;51.140;4.088;2023-06-04T13:11:50;2.72;;;1.70;;
32216;SDS011;67098;51.140;4.088;2023-06-04T13:14:16;1.45;;;1.23;;
32216;SDS011;67098;51.140;4.088;2023-06-04T13:16:42;2.80;;;1.48;;
32216;SDS011;67098;51.140;4.088;2023-06-04T13:19:10;3.40;;;1.65;;
32216;SDS011;67098;51.140;4.088;2023-06-04T13:21:36;1.98;;;1.25;;
32216;SDS011;67098;51.140;4.088;2023-06-04T13:24:01;3.45;;;1.70;;
32216;SDS011;67098;51.140;4.088;2023-06-04T13:26:27;3.25;;;1.55;;
32216;SDS011;67098;51.140;4.088;2023-06-04T13:28:53;3.38;;;1.33;;
32216;SDS011;67098;51.140;4.088;2023-06-04T13:31:19;4.60;;;1.75;;
32216;SDS011;67098;51.140;4.088;2023-06-04T13:33:44;1.98;;;1.35;;
32216;SDS011;67098;51.140;4.088;2023-06-04T13:36:10;6.43;;;1.50;;
32216;SDS011;67098;51.140;4.088;2023-06-04T13:38:36;2.05;;;1.35;;
32216;SDS011;67098;51.140;4.088;2023-06-04T13:41:03;3.40;;;1.48;;
32216;SDS011;67098;51.140;4.088;2023-06-04T13:43:29;3.25;;;1.35;;
32216;SDS011;67098;51.140;4.088;2023-06-04T13:45:54;3.13;;;1.45;;
32216;SDS011;67098;51.140;4.088;2023-06-04T13:48:20;2.33;;;1.40;;
32216;SDS011;67098;51.140;4.088;2023-06-04T13:50:46;4.85;;;1.40;;
32216;SDS011;67098;51.140;4.088;2023-06-04T13:53:11;3.13;;;1.45;;
32216;SDS011;67098;51.140;4.088;2023-06-04T13:55:38;5.95;;;1.23;;
32216;SDS011;67098;51.140;4.088;2023-06-04T13:58:04;2.88;;;1.75;;
32216;SDS011;67098;51.140;4.088;2023-06-04T14:00:30;6.20;;;1.45;;
32216;SDS011;67098;51.140;4.088;2023-06-04T14:02:56;2.38;;;1.40;;
32216;SDS011;67098;51.140;4.088;2023-06-04T14:05:23;4.05;;;1.52;;
32216;SDS011;67098;51.140;4.088;2023-06-04T14:07:50;3.88;;;1.73;;
32216;SDS011;67098;51.140;4.088;2023-06-04T14:10:16;3.28;;;1.75;;
32216;SDS011;67098;51.140;4.088;2023-06-04T14:12:42;6.07;;;1.98;;
32216;SDS011;67098;51.140;4.088;2023-06-04T14:15:09;2.63;;;1.75;;
32216;SDS011;67098;51.140;4.088;2023-06-04T14:17:37;2.97;;;1.67;;
32216;SDS011;67098;51.140;4.088;2023-06-04T14:20:03;2.72;;;1.60;;
32216;SDS011;67098;51.140;4.088;2023-06-04T14:22:38;4.88;;;1.90;;
32216;SDS011;67098;51.140;4.088;2023-06-04T14:25:07;4.18;;;1.50;;
32216;SDS011;67098;51.140;4.088;2023-06-04T14:27:34;4.80;;;1.60;;
32216;SDS011;67098;51.140;4.088;2023-06-04T14:30:01;3.65;;;1.63;;
32216;SDS011;67098;51.140;4.088;2023-06-04T14:32:27;4.07;;;1.67;;
32216;SDS011;67098;51.140;4.088;2023-06-04T14:34:53;6.47;;;1.80;;
32216;SDS011;67098;51.140;4.088;2023-06-04T14:37:20;3.13;;;1.92;;
32216;SDS011;67098;51.140;4.088;2023-06-04T14:39:46;2.10;;;1.58;;
32216;SDS011;67098;51.140;4.088;2023-06-04T14:42:12;5.75;;;1.77;;
32216;SDS011;67098;51.140;4.088;2023-06-04T14:44:38;3.33;;;1.70;;
32216;SDS011;67098;51.140;4.088;2023-06-04T14:47:04;4.65;;;1.95;;
32216;SDS011;67098;51.140;4.088;2023-06-04T14:49:30;5.43;;;2.03;;
32216;SDS011;67098;51.140;4.088;2023-06-04T14:51:56;5.15;;;1.58;;
32216;SDS011;67098;51.140;4.088;2023-06-04T14:54:22;3.25;;;1.92;;
32216;SDS011;67098;51.140;4.088;2023-06-04T14:56:47;2.90;;;1.77;;
32216;SDS011;67098;51.140;4.088;2023-06-04T14:59:13;6.78;;;2.00;;